Butts AAF (Fort Carson) Air Field
KFCS : rendu visible

Aérodrome :











RETROUVEZ-NOUS SUR...

 
LOGIN :

S'inscrire | Disclaimer

   EN    FR    IT 

 









Légende :    VFR   VFR Marginal   IFR   IFR Intensif   IFR Très Intensif
Visi : 
Plafond : 
>= 8 km
>= 3000ft
5 à 8 km
1000 à 3000 ft
1500m à 5 km
500 à 1000 ft
800 à 1500m
200 à 500 ft
< 800m
< 200 ft
Symboles :   Orages  Brouillard  Fortes neiges  Fortes précipitations  Vent > 20 kt






- Altitude de l'aérodrome : 5838 ft


KFCS - Butts AAF (Fort Carson) Air Field

DERNIER METAR :
  • 311658Z AUTO 00000KT 10SM CLR 26/08 A3015 RMK AO2 SLP152 T02590084 $

METARs EXPIRÉS :
  • 311558Z AUTO 00000KT 10SM CLR 23/10 A3016 RMK AO2 SLP164 T02330100 $
  • 311458Z AUTO 02005KT 10SM CLR 20/11 A3017 RMK AO2 SLP172 T01970107 50005 $

TAF TAF KFCS
Valide du 31 à 13h jusqu'au 01 à 19h UTC


311311Z 3113/0119 VRB06KT 9999 BKN130 QNH3011INS
BECMG 3120/3121 23010G15KT 9999 VCSH BKN090 QNH3009INS
TEMPO 3122/0102 VRB25G35KT 8000 -TSRA BKN090CB
BECMG 0104/0105 19009KT 9999 VCSH BKN090 OVC130 QNH3013INS
BECMG 0107/0108 VRB06KT 9999 NSW SCT130 QNH3012INS
BECMG 0114/0115 33009KT 9999 SCT190 QNH3014INS TX30/3119Z TN12/0112Z
FIR KZDV / Amérique du Nord



MET'MAP, la Météo Aéronautique d'un coup d'oeil ! - Copyright ORBIFLY Décembre 2007 - Disclaimer

ORBIFLY MET'MAP TEAM :

Programmation & Développement : Alexandra Zaïnal
Sur une idée originale de : Baudouin d'Aumeries
Assistance à la programmation : Marc-Olivier Méhu
Soutien technique & logistique : Manuel Goepfert

Contact : metmap@orbifly.com




SOURCES & CREDITS :

   NOAA       Earth
Advisory